Time;durP1;ratioP1;P1;durP2;ratioP2;P2;SDS_P1;SDS_P2;PMS_P1;PMS_P2;Temp;Humidity;BMP_temperature;BMP_pressure;BME280_temperature;BME280_humidity;BME280_pressure;Samples;Min_cycle;Max_cycle;Signal;HPM_P1;HPM_P2
2022/11/22 00:00:47;;;;;;;24.42;14.48;;;2.70;99.90;;;;;;5093494;28;20059;-61
2022/11/22 00:03:15;;;;;;;25.95;13.25;;;2.70;99.90;;;;;;5092043;28;20045;-61
2022/11/22 00:05:42;;;;;;;24.80;14.23;;;2.70;99.90;;;;;;5093509;28;20676;-62
2022/11/22 00:08:09;;;;;;;25.70;13.70;;;2.70;99.90;;;;;;5092083;28;20429;-61
2022/11/22 00:10:36;;;;;;;27.42;13.88;;;2.70;99.90;;;;;;5092685;28;20039;-61
2022/11/22 00:13:03;;;;;;;25.85;14.35;;;2.70;99.90;;;;;;5093729;28;20040;-60
2022/11/22 00:15:31;;;;;;;27.02;15.18;;;2.70;99.90;;;;;;5091741;28;20101;-60
2022/11/22 00:17:58;;;;;;;25.17;13.82;;;2.70;99.90;;;;;;5093732;28;20044;-61
2022/11/22 00:20:26;;;;;;;25.58;13.82;;;2.70;99.90;;;;;;5093457;28;20051;-60
2022/11/22 00:22:53;;;;;;;24.58;13.40;;;2.70;99.90;;;;;;5091637;28;20086;-60
2022/11/22 00:25:20;;;;;;;26.88;15.10;;;2.70;99.90;;;;;;5092015;28;20052;-60
2022/11/22 00:27:47;;;;;;;25.33;14.43;;;2.70;99.90;;;;;;5093074;28;20105;-62
2022/11/22 00:30:14;;;;;;;23.88;13.95;;;2.70;99.90;;;;;;5092200;28;20048;-61
2022/11/22 00:32:41;;;;;;;22.98;13.63;;;2.70;99.90;;;;;;5091461;28;20053;-61
2022/11/22 00:35:09;;;;;;;22.88;13.27;;;2.90;99.90;;;;;;5090681;28;20051;-61
2022/11/22 00:37:37;;;;;;;23.52;13.30;;;2.70;99.90;;;;;;5091844;28;20460;-61
2022/11/22 00:40:05;;;;;;;25.75;13.85;;;2.70;99.90;;;;;;5091462;28;20500;-61
2022/11/22 00:42:32;;;;;;;25.67;15.00;;;2.60;99.90;;;;;;5091460;28;20051;-61
2022/11/22 00:44:59;;;;;;;24.30;14.05;;;2.70;99.90;;;;;;5088655;28;20052;-61
2022/11/22 00:47:25;;;;;;;25.15;14.52;;;2.60;99.90;;;;;;5092698;28;20070;-62
2022/11/22 00:49:52;;;;;;;28.02;14.15;;;2.60;99.90;;;;;;5091037;28;20047;-61
2022/11/22 00:52:19;;;;;;;26.92;14.57;;;2.70;99.90;;;;;;5091661;28;20062;-61
2022/11/22 00:54:47;;;;;;;25.40;15.55;;;2.60;99.90;;;;;;5091495;28;20062;-61
2022/11/22 00:57:14;;;;;;;27.42;14.82;;;2.70;99.90;;;;;;5085885;28;20085;-60
2022/11/22 00:59:41;;;;;;;30.35;15.10;;;2.60;99.90;;;;;;5091574;28;20055;-60
2022/11/22 01:02:08;;;;;;;28.85;15.18;;;2.60;99.90;;;;;;5091147;28;20047;-61
2022/11/22 01:04:35;;;;;;;25.70;14.55;;;2.60;99.90;;;;;;5091857;28;20412;-61
2022/11/22 01:07:02;;;;;;;28.05;15.50;;;2.60;99.90;;;;;;5092693;28;20054;-61
2022/11/22 01:09:29;;;;;;;21.88;14.15;;;2.60;99.90;;;;;;5091559;28;20514;-60
2022/11/22 01:11:58;;;;;;;23.42;14.15;;;2.50;99.90;;;;;;5089804;28;20040;-62
2022/11/22 01:14:25;;;;;;;22.17;13.40;;;2.50;99.90;;;;;;5092107;28;20044;-61
2022/11/22 01:16:52;;;;;;;24.05;14.85;;;2.50;99.90;;;;;;5091168;28;20051;-61
2022/11/22 01:19:19;;;;;;;26.13;14.90;;;2.50;99.90;;;;;;5090815;28;20044;-61
2022/11/22 01:21:46;;;;;;;28.30;14.75;;;2.50;99.90;;;;;;5089051;28;20055;-60
2022/11/22 01:24:12;;;;;;;26.73;14.80;;;2.50;99.90;;;;;;5090155;28;20089;-61
2022/11/22 01:26:39;;;;;;;25.55;14.30;;;2.50;99.90;;;;;;5090153;28;20052;-60
2022/11/22 01:29:07;;;;;;;27.00;14.32;;;2.50;99.90;;;;;;5091112;28;20043;-61
2022/11/22 01:31:34;;;;;;;26.17;14.43;;;2.60;99.90;;;;;;5091974;28;20054;-62
2022/11/22 01:34:04;;;;;;;28.67;16.23;;;2.60;99.90;;;;;;5091610;28;20048;-61
2022/11/22 01:36:31;;;;;;;30.23;16.50;;;2.60;99.90;;;;;;5091104;28;20052;-61
2022/11/22 01:38:58;;;;;;;28.73;15.40;;;2.60;99.90;;;;;;5091497;28;20047;-61
2022/11/22 01:41:25;;;;;;;26.95;15.00;;;2.70;99.90;;;;;;5092159;28;20051;-61
2022/11/22 01:43:52;;;;;;;24.98;14.27;;;2.60;99.90;;;;;;5091820;28;20043;-61
2022/11/22 01:46:32;;;;;;;29.73;18.40;;;2.60;99.90;;;;;;5090271;28;20052;-61
2022/11/22 01:49:02;;;;;;;27.42;15.20;;;2.60;99.90;;;;;;5091590;28;20048;-60
2022/11/22 01:51:34;;;;;;;28.67;16.35;;;2.60;99.90;;;;;;5092162;28;20070;-62
2022/11/22 01:54:07;;;;;;;27.08;15.15;;;2.60;99.90;;;;;;5090395;28;20051;-62
2022/11/22 01:56:36;;;;;;;31.23;16.67;;;2.60;99.90;;;;;;5096723;28;20058;-61
2022/11/22 01:59:06;;;;;;;25.90;15.70;;;2.60;99.90;;;;;;5097643;28;20117;-61
2022/11/22 02:01:36;;;;;;;30.58;16.40;;;2.60;99.90;;;;;;5097730;28;20044;-60
2022/11/22 02:04:05;;;;;;;28.73;17.20;;;2.60;99.90;;;;;;5096441;28;20044;-61
2022/11/22 02:06:39;;;;;;;27.00;15.55;;;2.60;99.90;;;;;;5098307;28;20060;-62
2022/11/22 02:09:11;;;;;;;26.30;16.08;;;2.60;99.90;;;;;;5099028;28;20043;-61
2022/11/22 02:11:41;;;;;;;26.85;15.82;;;2.60;99.90;;;;;;5097474;28;20052;-62
2022/11/22 02:14:09;;;;;;;29.02;15.40;;;2.60;99.90;;;;;;5095974;28;20492;-62
2022/11/22 02:16:38;;;;;;;30.02;16.10;;;2.60;99.90;;;;;;5097200;28;20048;-61
2022/11/22 02:19:09;;;;;;;30.08;16.88;;;2.60;99.90;;;;;;5097396;28;20054;-61
2022/11/22 02:21:36;;;;;;;;;;;2.70;99.90;;;;;;5098587;28;20047;-61
2022/11/22 02:24:09;;;;;;;27.48;15.05;;;2.60;99.90;;;;;;5098028;28;20627;-60
2022/11/22 02:26:37;;;;;;;32.47;17.27;;;2.60;99.90;;;;;;5097426;28;20055;-61
2022/11/22 02:29:07;;;;;;;28.80;16.52;;;2.60;99.90;;;;;;5095061;28;20483;-61
2022/11/22 02:31:37;;;;;;;30.30;17.20;;;2.60;99.90;;;;;;5096630;28;20059;-60
2022/11/22 02:34:04;;;;;;;30.42;17.55;;;2.70;99.90;;;;;;5095900;28;20126;-60
2022/11/22 02:36:35;;;;;;;32.28;17.52;;;2.60;99.90;;;;;;5095475;28;20048;-61
2022/11/22 02:39:03;;;;;;;32.03;16.77;;;2.60;99.90;;;;;;5098434;28;20458;-60
2022/11/22 02:41:29;;;;;;;30.52;17.10;;;2.70;99.90;;;;;;5096274;28;20744;-60
2022/11/22 02:43:58;;;;;;;29.00;17.55;;;2.70;99.90;;;;;;5098178;28;20125;-61
2022/11/22 02:46:25;;;;;;;32.13;18.45;;;2.80;99.90;;;;;;5096797;28;20044;-62
2022/11/22 02:48:51;;;;;;;30.05;17.13;;;2.70;99.90;;;;;;5097567;28;20055;-61
2022/11/22 02:51:19;;;;;;;35.08;17.35;;;2.70;99.90;;;;;;5098083;28;20040;-61
2022/11/22 02:53:47;;;;;;;29.98;16.95;;;2.70;99.90;;;;;;5097752;28;20549;-61
2022/11/22 02:56:15;;;;;;;29.13;16.52;;;2.80;99.90;;;;;;5094529;28;20048;-62
2022/11/22 02:58:42;;;;;;;28.10;17.65;;;2.80;99.90;;;;;;5098333;28;20418;-60
2022/11/22 03:01:11;;;;;;;26.83;16.27;;;2.80;99.90;;;;;;5096862;28;20055;-61
2022/11/22 03:03:38;;;;;;;28.10;15.57;;;2.80;99.90;;;;;;5094143;28;20074;-60
2022/11/22 03:06:05;;;;;;;29.42;14.80;;;2.80;99.90;;;;;;5095866;28;20758;-62
2022/11/22 03:08:33;;;;;;;29.17;16.33;;;2.80;99.90;;;;;;5092611;28;20040;-62
2022/11/22 03:11:00;;;;;;;27.88;16.83;;;2.80;99.90;;;;;;5091180;28;20503;-61
2022/11/22 03:13:27;;;;;;;29.00;15.57;;;2.80;99.90;;;;;;5094755;28;20454;-61
2022/11/22 03:15:54;;;;;;;30.75;16.70;;;2.90;99.90;;;;;;5094470;28;20048;-61
2022/11/22 03:18:22;;;;;;;28.27;15.52;;;3.20;99.90;;;;;;5092893;28;20411;-61
2022/11/22 03:20:49;;;;;;;26.25;15.50;;;3.00;99.90;;;;;;5094613;28;20052;-61
2022/11/22 03:23:16;;;;;;;24.98;14.52;;;2.90;99.90;;;;;;5094447;28;20049;-61
2022/11/22 03:25:43;;;;;;;27.92;16.00;;;2.90;99.90;;;;;;5093610;28;20044;-61
2022/11/22 03:28:10;;;;;;;28.48;16.13;;;2.90;99.90;;;;;;5094435;28;20446;-61
2022/11/22 03:30:40;;;;;;;27.55;14.68;;;3.00;99.90;;;;;;5093890;28;20056;-62
2022/11/22 03:33:06;;;;;;;24.90;14.57;;;2.90;99.90;;;;;;5094420;28;20136;-60
2022/11/22 03:35:35;;;;;;;25.83;15.55;;;3.00;99.90;;;;;;5093193;28;20286;-61
2022/11/22 03:38:02;;;;;;;25.65;15.18;;;3.00;99.90;;;;;;5093957;28;20048;-61
2022/11/22 03:40:29;;;;;;;28.73;16.25;;;3.00;99.90;;;;;;5092780;28;20051;-62
2022/11/22 03:42:59;;;;;;;29.02;15.75;;;3.00;99.90;;;;;;5094347;28;20137;-62
2022/11/22 03:45:26;;;;;;;30.92;16.30;;;3.00;99.90;;;;;;5093557;28;20080;-61
2022/11/22 03:47:53;;;;;;;26.30;15.52;;;3.00;99.90;;;;;;5092956;28;20424;-61
2022/11/22 03:50:19;;;;;;;25.58;15.25;;;3.10;99.90;;;;;;5092789;28;20135;-61
2022/11/22 03:52:48;;;;;;;26.50;15.05;;;3.10;99.90;;;;;;5091465;28;20066;-61
2022/11/22 03:55:15;;;;;;;24.25;14.57;;;3.10;99.90;;;;;;5091849;28;20089;-62
2022/11/22 03:57:42;;;;;;;26.33;14.70;;;3.10;99.90;;;;;;5092807;28;20063;-60
2022/11/22 04:00:11;;;;;;;26.08;15.23;;;3.10;99.90;;;;;;5091826;28;20738;-61
2022/11/22 04:02:37;;;;;;;26.00;14.80;;;3.10;99.90;;;;;;5094021;28;20044;-61
2022/11/22 04:05:05;;;;;;;29.27;14.95;;;3.10;99.90;;;;;;5093571;28;20055;-61
2022/11/22 04:07:32;;;;;;;23.25;13.85;;;3.10;99.90;;;;;;5092130;28;20052;-61
2022/11/22 04:10:00;;;;;;;27.55;14.82;;;3.10;99.90;;;;;;5093193;28;20052;-61
2022/11/22 04:12:29;;;;;;;24.02;15.10;;;3.10;99.90;;;;;;5092444;28;20051;-61
2022/11/22 04:17:43;;;;;;;27.98;13.57;;;3.10;99.90;;;;;;5088786;28;20056;-61
2022/11/22 04:22:57;;;;;;;23.95;14.93;;;3.10;99.90;;;;;;5093541;28;20062;-62
2022/11/22 04:25:26;;;;;;;23.10;14.38;;;3.20;99.90;;;;;;5091152;28;20079;-62
2022/11/22 04:27:53;;;;;;;26.20;15.18;;;3.20;99.90;;;;;;5092819;28;20090;-62
2022/11/22 04:30:20;;;;;;;26.70;14.75;;;3.20;99.90;;;;;;5093505;28;20055;-62
2022/11/22 04:32:46;;;;;;;24.40;14.65;;;3.20;99.90;;;;;;5092219;28;20051;-61
2022/11/22 04:35:14;;;;;;;21.85;13.32;;;3.20;99.90;;;;;;5091627;28;20040;-62
2022/11/22 04:37:41;;;;;;;26.02;14.23;;;3.20;99.90;;;;;;5091887;28;20091;-62
2022/11/22 04:40:10;;;;;;;29.50;15.10;;;3.30;99.90;;;;;;5090498;28;20538;-61
2022/11/22 04:45:23;;;;;;;27.85;14.30;;;3.30;99.90;;;;;;5092861;28;20048;-61
2022/11/22 04:48:01;;;;;;;23.30;14.57;;;3.40;99.90;;;;;;5092009;28;20551;-61
2022/11/22 04:53:16;;;;;;;21.67;13.07;;;3.40;99.90;;;;;;5091752;28;20047;-60
2022/11/22 04:55:46;;;;;;;25.20;13.85;;;3.60;99.90;;;;;;5090891;28;20415;-68
2022/11/22 04:58:14;;;;;;;26.58;14.27;;;3.40;99.90;;;;;;5079267;28;20052;-62
2022/11/22 05:00:41;;;;;;;25.50;13.88;;;3.40;99.90;;;;;;5085847;28;20055;-60
2022/11/22 05:03:09;;;;;;;25.98;14.38;;;3.50;99.90;;;;;;5078170;28;20161;-61
2022/11/22 05:05:37;;;;;;;25.02;14.02;;;3.50;99.90;;;;;;5081441;28;20048;-61
2022/11/22 05:08:05;;;;;;;22.40;13.68;;;3.50;99.90;;;;;;5082453;28;20052;-61
2022/11/22 05:10:55;;;;;;;21.67;13.77;;;3.50;99.90;;;;;;5079070;28;20081;-61
2022/11/22 05:13:23;;;;;;;22.88;13.57;;;3.50;99.90;;;;;;5083188;28;20051;-60
2022/11/22 05:15:50;;;;;;;21.88;13.38;;;3.60;99.90;;;;;;5085859;28;20040;-61
2022/11/22 05:18:17;;;;;;;26.90;15.43;;;3.60;99.90;;;;;;5080222;28;20078;-61
2022/11/22 05:20:44;;;;;;;25.50;15.38;;;3.60;99.90;;;;;;5081529;28;20495;-61
2022/11/22 05:25:55;;;;;;;26.45;13.93;;;3.60;99.90;;;;;;5085032;28;20059;-61
2022/11/22 05:28:23;;;;;;;22.27;12.90;;;3.70;99.90;;;;;;5081045;28;20048;-61
2022/11/22 05:30:50;;;;;;;26.77;15.45;;;3.70;99.90;;;;;;5076222;28;20522;-62
2022/11/22 05:33:17;;;;;;;21.40;13.65;;;3.70;99.90;;;;;;5084041;28;20115;-62
2022/11/22 05:35:44;;;;;;;22.42;13.65;;;3.70;99.90;;;;;;5084632;28;20052;-62
2022/11/22 05:38:11;;;;;;;25.45;13.45;;;3.80;99.90;;;;;;5080383;28;20413;-62
2022/11/22 05:40:38;;;;;;;24.88;14.18;;;3.80;99.90;;;;;;5087941;28;20051;-61
2022/11/22 05:43:05;;;;;;;25.52;13.68;;;3.80;99.90;;;;;;5089361;28;20048;-61
2022/11/22 05:45:34;;;;;;;26.42;14.13;;;3.80;99.90;;;;;;5083224;28;20040;-61
2022/11/22 05:48:01;;;;;;;21.05;14.10;;;3.90;99.90;;;;;;5084763;28;20441;-61
2022/11/22 05:50:27;;;;;;;20.33;13.05;;;3.90;99.90;;;;;;5083893;28;20442;-61
2022/11/22 05:52:54;;;;;;;23.83;14.07;;;3.90;99.90;;;;;;5079257;28;20430;-61
2022/11/22 05:55:21;;;;;;;24.15;13.65;;;3.90;99.90;;;;;;5081431;28;20037;-61
2022/11/22 05:57:48;;;;;;;21.15;13.10;;;3.90;99.90;;;;;;5080557;28;20052;-60
2022/11/22 06:00:16;;;;;;;24.30;14.05;;;4.00;99.90;;;;;;5089667;28;20525;-59
2022/11/22 06:02:44;;;;;;;22.25;13.20;;;4.00;99.90;;;;;;5087065;28;20052;-61
2022/11/22 06:05:11;;;;;;;23.05;14.05;;;4.20;99.90;;;;;;5082696;28;20044;-61
2022/11/22 06:07:38;;;;;;;26.42;13.73;;;4.00;99.90;;;;;;5080230;28;20056;-62
2022/11/22 06:10:05;;;;;;;25.08;13.80;;;4.10;99.90;;;;;;5085380;28;20427;-61
2022/11/22 06:12:32;;;;;;;20.55;13.73;;;4.10;99.90;;;;;;5082153;28;20381;-60
2022/11/22 06:14:59;;;;;;;27.08;13.60;;;4.10;99.90;;;;;;5081575;28;20407;-60
2022/11/22 06:17:26;;;;;;;25.27;14.70;;;4.10;99.90;;;;;;5077577;28;20432;-61
2022/11/22 06:19:54;;;;;;;28.60;13.98;;;4.10;99.90;;;;;;5075649;28;20508;-61
2022/11/22 06:22:21;;;;;;;21.00;13.80;;;4.10;99.90;;;;;;5076001;28;20052;-60
2022/11/22 06:24:48;;;;;;;24.30;13.95;;;4.10;99.90;;;;;;5082923;28;20045;-61
2022/11/22 06:27:15;;;;;;;20.77;13.65;;;4.20;99.90;;;;;;5079658;28;20048;-60
2022/11/22 06:29:42;;;;;;;21.08;13.18;;;4.20;99.90;;;;;;5084530;28;20415;-61
2022/11/22 06:32:09;;;;;;;20.48;13.25;;;4.20;99.90;;;;;;5085256;28;20143;-61
2022/11/22 06:34:36;;;;;;;24.23;14.45;;;4.20;99.90;;;;;;5086100;28;20381;-61
2022/11/22 06:37:04;;;;;;;22.83;13.52;;;4.20;99.90;;;;;;5075866;28;20758;-61
2022/11/22 06:39:31;;;;;;;21.90;13.65;;;4.20;99.90;;;;;;5084961;28;20067;-60
2022/11/22 06:41:58;;;;;;;22.73;13.25;;;4.20;99.90;;;;;;5088995;28;20052;-61
2022/11/22 06:44:24;;;;;;;23.92;14.57;;;4.30;99.90;;;;;;5088596;28;20540;-61
2022/11/22 06:46:51;;;;;;;21.05;13.18;;;4.30;99.90;;;;;;5090495;28;20052;-60
2022/11/22 06:49:18;;;;;;;23.70;12.68;;;4.30;99.90;;;;;;5088777;28;20070;-61
2022/11/22 06:51:45;;;;;;;23.27;13.93;;;4.30;99.90;;;;;;5078650;28;20740;-61
2022/11/22 06:54:14;;;;;;;19.95;12.57;;;4.30;99.90;;;;;;5084018;28;20055;-63
2022/11/22 06:56:41;;;;;;;21.15;12.98;;;4.30;99.90;;;;;;5088496;28;20138;-61
2022/11/22 06:59:08;;;;;;;21.83;12.90;;;4.40;99.90;;;;;;5084470;28;20168;-61
2022/11/22 07:01:37;;;;;;;23.58;13.23;;;4.40;99.90;;;;;;5080056;28;20052;-61
2022/11/22 07:04:04;;;;;;;22.10;12.60;;;4.40;99.90;;;;;;5085511;28;20518;-62
2022/11/22 07:06:33;;;;;;;26.23;14.60;;;4.40;99.90;;;;;;5082720;28;20048;-61
2022/11/22 07:09:00;;;;;;;20.58;12.55;;;4.60;99.90;;;;;;5093470;28;20492;-61
2022/11/22 07:11:30;;;;;;;22.20;13.95;;;4.50;99.90;;;;;;5088050;28;20519;-62
2022/11/22 07:13:59;;;;;;;24.55;12.07;;;4.50;99.90;;;;;;5083259;28;20545;-61
2022/11/22 07:16:26;;;;;;;21.10;12.18;;;4.50;99.90;;;;;;5091071;28;20081;-62
2022/11/22 07:18:53;;;;;;;23.27;12.27;;;4.50;99.90;;;;;;5087757;28;20056;-61
2022/11/22 07:21:21;;;;;;;17.90;12.43;;;4.60;99.90;;;;;;5087632;28;20186;-61
2022/11/22 07:23:50;;;;;;;19.13;12.15;;;4.60;99.90;;;;;;5089645;28;20487;-61
2022/11/22 07:26:19;;;;;;;19.67;11.23;;;4.60;99.90;;;;;;5083917;28;20040;-61
2022/11/22 07:28:47;;;;;;;18.65;11.73;;;4.60;99.90;;;;;;5087251;28;20407;-61
2022/11/22 07:31:16;;;;;;;22.98;12.63;;;4.70;99.90;;;;;;5087702;28;20056;-62
2022/11/22 07:33:44;;;;;;;18.50;11.60;;;4.70;99.90;;;;;;5087550;28;20048;-61
2022/11/22 07:36:13;;;;;;;22.50;10.93;;;4.70;99.90;;;;;;5089238;28;20156;-62
2022/11/22 07:38:40;;;;;;;21.38;12.27;;;4.80;99.90;;;;;;5085952;28;20058;-62
2022/11/22 07:41:07;;;;;;;22.23;13.00;;;4.80;99.90;;;;;;5085944;28;20071;-61
2022/11/22 07:43:36;;;;;;;20.52;10.90;;;4.80;99.90;;;;;;5089711;28;20072;-61
2022/11/22 07:46:07;;;;;;;23.48;11.00;;;4.80;99.90;;;;;;5089256;28;20051;-61
2022/11/22 07:48:34;;;;;;;23.55;10.48;;;4.90;99.90;;;;;;5080865;28;20492;-61
2022/11/22 07:51:04;;;;;;;16.48;10.48;;;4.90;99.90;;;;;;5080781;28;20049;-60
2022/11/22 07:53:32;;;;;;;20.52;9.63;;;5.00;99.90;;;;;;5086473;28;20052;-61
2022/11/22 07:56:01;;;;;;;19.38;9.80;;;5.00;99.90;;;;;;5092310;28;20097;-61
2022/11/22 07:58:28;;;;;;;15.25;10.23;;;5.00;99.90;;;;;;5082913;28;20102;-61
2022/11/22 08:00:55;;;;;;;16.75;9.80;;;5.20;99.90;;;;;;5083438;28;20059;-62
2022/11/22 08:03:24;;;;;;;16.60;8.98;;;5.10;99.90;;;;;;5086188;28;20044;-62
2022/11/22 08:05:51;;;;;;;17.55;9.63;;;5.20;99.90;;;;;;5084611;28;20063;-62
2022/11/22 08:08:18;;;;;;;22.73;8.18;;;5.20;99.90;;;;;;5088103;28;20101;-62
2022/11/22 08:10:45;;;;;;;17.35;7.78;;;5.30;99.90;;;;;;5085244;28;20109;-61
2022/11/22 08:13:12;;;;;;;19.92;8.40;;;5.30;99.90;;;;;;5085964;28;20607;-62
2022/11/22 08:15:39;;;;;;;13.13;7.32;;;5.40;99.90;;;;;;5086882;28;20056;-61
2022/11/22 08:18:06;;;;;;;13.07;6.50;;;5.50;99.90;;;;;;5084227;28;20056;-61
2022/11/22 08:20:34;;;;;;;15.68;7.03;;;5.50;99.90;;;;;;5085478;28;20519;-61
2022/11/22 08:23:01;;;;;;;13.85;5.82;;;5.60;99.90;;;;;;5088047;28;20085;-60
2022/11/22 08:25:28;;;;;;;14.80;5.78;;;5.70;99.90;;;;;;5086648;28;20048;-61
2022/11/22 08:27:56;;;;;;;11.18;5.95;;;5.80;99.90;;;;;;5083585;28;20097;-61
2022/11/22 08:30:22;;;;;;;14.20;6.38;;;5.80;99.90;;;;;;5088808;28;20048;-60
2022/11/22 08:32:50;;;;;;;15.02;5.72;;;5.90;99.90;;;;;;5086530;28;20051;-61
2022/11/22 08:35:17;;;;;;;10.82;5.15;;;6.00;99.90;;;;;;5080984;28;20047;-61
2022/11/22 08:37:45;;;;;;;13.57;5.60;;;6.00;99.90;;;;;;5085957;28;20110;-61
2022/11/22 08:40:13;;;;;;;10.98;4.88;;;6.00;99.90;;;;;;5085621;28;20499;-61
2022/11/22 08:42:40;;;;;;;14.98;5.47;;;6.10;99.90;;;;;;5086042;28;20052;-61
2022/11/22 08:45:07;;;;;;;12.32;5.47;;;6.20;99.90;;;;;;5084263;28;20047;-61
2022/11/22 08:47:34;;;;;;;12.65;5.00;;;6.30;99.90;;;;;;5080797;28;20139;-62
2022/11/22 08:50:01;;;;;;;13.23;5.28;;;6.50;99.90;;;;;;5089140;28;20559;-61
2022/11/22 08:52:28;;;;;;;8.00;4.20;;;6.50;99.90;;;;;;5088418;28;20055;-62
2022/11/22 08:54:56;;;;;;;11.45;5.43;;;6.50;99.90;;;;;;5079377;28;20104;-61
2022/11/22 08:57:23;;;;;;;10.82;4.60;;;6.40;99.90;;;;;;5076416;28;20051;-62
2022/11/22 08:59:50;;;;;;;11.60;4.60;;;6.30;99.90;;;;;;5090083;28;20047;-60
2022/11/22 09:02:17;;;;;;;11.85;4.65;;;6.20;99.90;;;;;;5092466;28;20406;-61
2022/11/22 09:04:44;;;;;;;14.07;4.38;;;6.20;99.90;;;;;;5092874;28;20044;-62
2022/11/22 09:07:11;;;;;;;10.25;4.65;;;6.20;99.90;;;;;;5094761;28;20044;-61
2022/11/22 09:09:38;;;;;;;12.05;3.92;;;6.10;99.90;;;;;;5087379;28;20079;-61
2022/11/22 09:12:07;;;;;;;12.05;4.20;;;6.10;99.90;;;;;;5089345;28;20051;-62
2022/11/22 09:14:34;;;;;;;14.40;4.60;;;6.00;99.90;;;;;;5081741;28;20573;-62
2022/11/22 09:17:01;;;;;;;13.50;4.70;;;6.00;99.90;;;;;;5083341;28;20523;-61
2022/11/22 09:19:28;;;;;;;8.90;3.67;;;6.00;99.90;;;;;;5081905;28;20058;-61
2022/11/22 09:21:54;;;;;;;10.15;4.68;;;6.00;99.90;;;;;;5082451;28;20049;-61
2022/11/22 09:24:21;;;;;;;16.05;4.88;;;6.00;99.90;;;;;;5084120;28;20048;-61
2022/11/22 09:26:48;;;;;;;10.88;3.63;;;6.00;99.90;;;;;;5085783;28;20055;-61
2022/11/22 09:29:16;;;;;;;10.93;3.55;;;6.00;99.90;;;;;;5086112;28;20148;-61
2022/11/22 09:31:43;;;;;;;9.60;4.18;;;6.00;99.90;;;;;;5086822;28;20040;-60
2022/11/22 09:34:10;;;;;;;8.80;3.40;;;6.00;99.90;;;;;;5085693;28;20411;-61
2022/11/22 09:36:37;;;;;;;9.73;4.22;;;6.00;99.90;;;;;;5081314;28;20554;-67
2022/11/22 09:39:04;;;;;;;17.73;4.65;;;6.00;99.90;;;;;;5086262;28;20056;-61
2022/11/22 09:41:59;;;;;;;11.63;4.80;;;6.00;99.90;;;;;;5083723;28;20048;-61
2022/11/22 09:44:37;;;;;;;9.40;4.35;;;5.90;99.90;;;;;;5082138;28;20459;-60
2022/11/22 09:47:14;;;;;;;8.60;4.28;;;5.90;99.90;;;;;;5086080;28;20051;-61
2022/11/22 09:49:52;;;;;;;16.52;5.07;;;5.90;99.90;;;;;;5089566;28;20052;-61
2022/11/22 09:52:27;;;;;;;6.63;3.42;;;5.90;99.90;;;;;;5083338;28;20048;-61
2022/11/22 09:54:57;;;;;;;7.50;3.80;;;5.90;99.90;;;;;;5085903;28;20515;-62
2022/11/22 09:57:29;;;;;;;10.07;4.30;;;6.00;99.90;;;;;;5090853;28;20051;-63
2022/11/22 10:00:03;;;;;;;10.15;4.43;;;6.00;99.90;;;;;;5084641;28;20498;-62
2022/11/22 10:02:35;;;;;;;7.90;4.70;;;6.00;99.90;;;;;;5089602;28;20040;-60
2022/11/22 10:05:12;;;;;;;11.95;4.38;;;6.00;99.90;;;;;;5090716;28;20047;-61
2022/11/22 10:07:43;;;;;;;5.22;3.42;;;6.00;99.90;;;;;;5093244;28;20074;-62
2022/11/22 10:10:14;;;;;;;6.13;3.03;;;6.10;99.90;;;;;;5083478;28;20488;-63
2022/11/22 10:12:45;;;;;;;5.78;3.33;;;6.10;99.90;;;;;;5083876;28;20483;-65
2022/11/22 10:15:32;;;;;;;8.73;3.25;;;6.10;99.90;;;;;;5080412;28;20055;-62
2022/11/22 10:18:03;;;;;;;7.00;3.10;;;6.00;99.90;;;;;;5083555;28;20489;-60
2022/11/22 10:20:32;;;;;;;11.13;3.53;;;6.10;99.90;;;;;;5084352;28;20099;-60
2022/11/22 10:22:59;;;;;;;10.13;3.58;;;6.10;99.90;;;;;;5084913;28;20052;-61
2022/11/22 10:25:35;;;;;;;6.50;3.10;;;6.10;99.90;;;;;;5088166;28;20060;-63
2022/11/22 10:28:12;;;;;;;9.52;3.22;;;6.20;99.90;;;;;;5082393;28;20051;-60
2022/11/22 10:30:47;;;;;;;10.18;3.78;;;6.20;99.90;;;;;;5090715;28;20044;-59
2022/11/22 10:33:19;;;;;;;5.25;2.60;;;6.30;99.90;;;;;;5088142;28;20491;-60
2022/11/22 10:36:01;;;;;;;5.95;2.80;;;6.30;99.90;;;;;;5088498;28;20510;-61
2022/11/22 10:38:48;;;;;;;8.43;3.15;;;6.40;99.90;;;;;;5087118;28;20044;-61
2022/11/22 10:41:27;;;;;;;5.35;2.65;;;6.30;99.90;;;;;;5080713;28;20523;-65
2022/11/22 10:44:03;;;;;;;9.07;2.50;;;6.50;99.90;;;;;;5082638;28;20051;-61
2022/11/22 10:46:39;;;;;;;15.65;3.45;;;6.40;99.90;;;;;;5081775;28;20048;-62
2022/11/22 10:49:15;;;;;;;6.72;2.60;;;6.50;99.90;;;;;;5092310;28;20054;-59
2022/11/22 10:51:48;;;;;;;8.13;3.17;;;6.70;99.90;;;;;;5082682;28;20143;-61
2022/11/22 10:54:21;;;;;;;6.13;2.38;;;7.20;99.90;;;;;;5080499;28;20538;-60
2022/11/22 10:56:53;;;;;;;8.32;2.70;;;7.50;99.90;;;;;;5092149;28;20097;-70
2022/11/22 10:59:31;;;;;;;5.32;2.30;;;7.50;99.90;;;;;;5085682;28;20052;-61
2022/11/22 11:02:15;;;;;;;5.40;2.45;;;7.50;99.90;;;;;;5087674;28;20511;-61
2022/11/22 11:04:44;;;;;;;11.75;2.40;;;7.40;99.90;;;;;;5087065;28;20492;-61
2022/11/22 11:07:15;;;;;;;8.43;2.40;;;7.20;99.90;;;;;;5094574;28;20047;-61
2022/11/22 11:09:44;;;;;;;8.40;2.67;;;7.10;99.90;;;;;;5090266;28;20044;-59
2022/11/22 11:12:17;;;;;;;5.25;2.72;;;7.10;99.90;;;;;;5087174;28;20048;-61
2022/11/22 11:14:48;;;;;;;8.75;2.80;;;7.10;99.90;;;;;;5085187;28;20576;-63
2022/11/22 11:17:20;;;;;;;14.45;2.85;;;7.10;99.90;;;;;;5092964;28;20040;-63
2022/11/22 11:19:49;;;;;;;6.28;2.00;;;7.00;99.90;;;;;;5096246;28;20048;-62
2022/11/22 11:22:20;;;;;;;7.35;2.90;;;7.00;99.90;;;;;;5083665;28;20468;-62
2022/11/22 11:24:48;;;;;;;6.18;2.83;;;7.00;99.90;;;;;;5083963;28;20070;-63
2022/11/22 11:27:18;;;;;;;5.32;2.58;;;7.00;99.90;;;;;;5081158;28;20045;-63
2022/11/22 11:29:47;;;;;;;4.70;2.55;;;6.90;99.90;;;;;;5087807;28;20064;-63
2022/11/22 11:32:18;;;;;;;5.25;2.03;;;7.00;99.90;;;;;;5086907;28;20063;-63
2022/11/22 11:34:53;;;;;;;7.53;2.85;;;7.80;99.90;;;;;;5083370;28;20059;-62
2022/11/22 11:37:26;;;;;;;5.20;2.35;;;7.90;99.90;;;;;;5084152;28;20085;-63
2022/11/22 11:39:53;;;;;;;4.45;2.08;;;7.80;99.90;;;;;;5078745;28;20095;-62
2022/11/22 11:42:29;;;;;;;8.75;2.22;;;7.70;99.90;;;;;;5085784;28;20056;-62
2022/11/22 11:45:25;;;;;;;6.40;2.15;;;7.50;99.90;;;;;;5085100;28;20052;-61
2022/11/22 11:47:54;;;;;;;8.35;2.08;;;7.40;99.90;;;;;;5087640;28;20048;-62
2022/11/22 11:50:26;;;;;;;7.53;2.13;;;7.40;99.90;;;;;;5088250;28;20044;-62
2022/11/22 11:52:55;;;;;;;7.07;2.00;;;7.50;99.90;;;;;;5078970;28;20493;-62
2022/11/22 11:55:23;;;;;;;6.63;2.15;;;7.60;99.90;;;;;;5085827;28;20434;-62
2022/11/22 11:57:53;;;;;;;4.43;2.40;;;7.80;99.90;;;;;;5091463;28;20040;-61
2022/11/22 12:00:25;;;;;;;9.57;2.20;;;7.90;99.90;;;;;;5092547;28;20044;-62
2022/11/22 12:03:05;;;;;;;6.28;2.20;;;8.10;99.90;;;;;;5090397;28;20048;-62
2022/11/22 12:05:33;;;;;;;7.88;2.33;;;8.20;99.90;;;;;;5091535;28;20067;-62
2022/11/22 12:08:01;;;;;;;5.40;2.10;;;8.40;99.90;;;;;;5092672;28;20052;-64
2022/11/22 12:10:37;;;;;;;7.57;2.35;;;9.50;99.90;;;;;;5092309;28;20056;-63
2022/11/22 12:13:13;;;;;;;5.13;2.15;;;11.20;99.90;;;;;;5092234;28;20055;-62
2022/11/22 12:15:50;;;;;;;5.55;2.67;;;12.80;99.90;;;;;;5091456;28;20545;-63
2022/11/22 12:18:31;;;;;;;6.13;1.95;;;13.80;99.90;;;;;;5090685;28;20052;-63
2022/11/22 12:21:07;;;;;;;11.80;2.80;;;14.20;99.90;;;;;;5092628;28;20056;-62
2022/11/22 12:23:40;;;;;;;9.18;2.58;;;13.40;99.90;;;;;;5091604;28;20051;-63
2022/11/22 12:26:07;;;;;;;6.13;2.63;;;12.40;99.90;;;;;;5090005;28;20048;-63
2022/11/22 12:28:35;;;;;;;4.22;1.90;;;11.40;99.90;;;;;;5093061;28;20117;-63
2022/11/22 12:31:07;;;;;;;7.72;1.85;;;10.60;99.90;;;;;;5093660;28;20101;-63
2022/11/22 12:33:41;;;;;;;6.03;1.98;;;10.00;99.90;;;;;;5092695;28;20040;-62
2022/11/22 12:36:15;;;;;;;5.57;2.30;;;9.30;99.90;;;;;;5092768;28;20044;-62
2022/11/22 12:38:45;;;;;;;8.00;2.33;;;9.00;99.90;;;;;;5092880;28;20404;-63
2022/11/22 12:41:15;;;;;;;7.05;2.60;;;8.70;99.90;;;;;;5091856;28;20514;-63
2022/11/22 12:43:46;;;;;;;8.57;2.53;;;8.60;99.90;;;;;;5090614;28;20048;-63
2022/11/22 12:46:18;;;;;;;6.50;2.15;;;8.40;99.90;;;;;;5090879;28;20442;-63
2022/11/22 12:48:49;;;;;;;8.95;2.60;;;8.30;99.90;;;;;;5090603;28;20457;-63
2022/11/22 12:51:23;;;;;;;5.68;2.67;;;8.10;99.90;;;;;;5091900;28;20491;-62
2022/11/22 12:53:51;;;;;;;9.30;3.60;;;8.10;99.90;;;;;;5091368;28;20063;-62
2022/11/22 12:56:25;;;;;;;7.20;2.67;;;8.00;99.90;;;;;;5092844;28;20055;-62
2022/11/22 12:59:01;;;;;;;8.27;2.63;;;7.90;99.90;;;;;;5091059;28;20055;-62
2022/11/22 13:01:34;;;;;;;4.80;2.03;;;7.80;99.90;;;;;;5091510;28;20047;-63
2022/11/22 13:04:12;;;;;;;8.20;2.00;;;7.80;99.90;;;;;;5090918;28;20040;-62
2022/11/22 13:06:47;;;;;;;4.97;2.28;;;7.70;99.90;;;;;;5093000;28;20052;-63